Tiempo atmosférico en la estación meteorológica de Cillórigo de Liébana, Tama, Cantabria (250 m.)



Fecha
DESCASC
Temp. máxima en grados centígrados (hora)
DESCASC
Temp. mínima en grados centígrados (hora)
DESCASC
Temp. media en grados centígrados
DESCASC
Racha de viento máxima en m/sg (hora)
DESCASC
Velocidad máxima media en intervalos de 10 minutos(hora)
DESCASC
Precipitaciones diarias en mm
DESCASC
Precipitaciones de 00:00 a 06:00 en mm
DESCASC
Precipitaciones de 06:00 a 12:00 en mm
DESCASC
Precipitaciones de 12:00 a 18:00 en mm
DESCASC
Precipitaciones de 18:00 a 24:00 en mm
DESCASC
31-03-2020 11.3 (18:10) 1.3 (05:30) 6.3 3.61 (15:10) 1.94 (18:50) 0.2 0.2 0 0 0
30-03-2020 6.3 (00:00) 1.8 (18:10) 4.1 11.94 (09:10) 4.72 (09:20) 20 4 6.4 6.2 3.4
29-03-2020 15.3 (16:20) 3 (00:00) 9.2 11.11 (15:20) 5 (15:20) 0.2 0 0 0 0.2
28-03-2020 16.9 (13:50) -0.9 (-00:0) 8 10.56 (16:00) 5.83 (14:40) 0 0 0 0 0
27-03-2020 14.2 (15:40) -0.7 (-00:0) 6.7 9.72 (16:10) 4.72 (16:50) 0 0 0 0 0
26-03-2020 12.8 (15:10) 2.5 (00:00) 7.7 11.11 (13:30) 5.83 (14:20) 0 0 0 0 0
25-03-2020 18.2 (14:30) 3.6 (00:00) 10.9 11.39 (16:40) 5.28 (17:30) 0 0 0 0 0
24-03-2020 19.9 (14:40) 4.4 (00:00) 12.1 10.28 (17:50) 5.28 (17:10) 0 0 0 0 0
23-03-2020 16.3 (14:10) 7.4 (00:00) 11.8 11.11 (16:40) 5.56 (16:20) 0 0 0 0 0
22-03-2020 17.1 (13:30) 7.8 (00:40) 12.5 10.83 (16:10) 5.83 (16:10) 0 0 0 0 0
21-03-2020 20.8 (14:20) 6.2 (00:00) 13.5 10.28 (17:00) 5 (17:10) 2.6 0 0 0.4 2.2
20-03-2020 19.5 (14:20) 5.1 (00:00) 12.3 9.44 (12:40) 3.61 (12:40) 0 0 0 0 0
19-03-2020 22.8 (14:10) 5.3 (00:00) 14 6.67 (15:10) 4.44 (15:10) 0 0 0 0 0
18-03-2020 20.4 (15:30) 4.2 (00:00) 12.3 6.39 (17:00) 3.61 (16:00) 0 0 0 0 0
17-03-2020 16.4 (16:30) 6.2 (00:00) 11.3 4.44 (13:30) 2.5 (19:30) 0 0 0 0 0
16-03-2020 9.9 (14:40) 4.6 (00:00) 7.2 9.17 (15:20) 4.44 (09:30) 15.8 3 6 4.2 2.6
15-03-2020 15 (11:50) 1.2 (00:00) 8.1 15.28 (13:40) 8.61 (14:40) 2.4 0 0 0.4 2
14-03-2020 16.7 (15:10) 5.5 (00:00) 11.1 8.61 (17:00) 4.17 (17:00) 0 0 0 0 0
13-03-2020 13.9 (13:40) 6.4 (23:50) 10.1 10.28 (15:00) 5.83 (15:10) 0 0 0 0 0
12-03-2020 14.5 (14:30) 8 (00:00) 11.3 10.83 (16:50) 5.56 (16:50) 0 0 0 0 0
11-03-2020 21.2 (17:00) 1.6 (00:00) 11.4 11.39 (17:20) 5.28 (17:20) 0 0 0 0 0
10-03-2020 19 (16:20) 2.5 (00:00) 10.8 10.28 (18:50) 5.28 (17:20) 0 0 0 0 0
09-03-2020 15.2 (16:30) 3.5 (00:00) 9.3 7.5 (14:40) 4.17 (14:40) 0 0 0 0 0
08-03-2020 18.4 (14:50) 1 (00:00) 9.7 13.61 (17:30) 5.83 (17:30) 0 0 0 0 0
07-03-2020 15.3 (14:20) 3.5 (00:00) 9.4 12.78 (02:40) 6.67 (04:00) 0 0 0 0 0
06-03-2020 9.7 (13:50) 3.8 (00:00) 6.7 16.67 (08:50) 7.22 (08:00) 12.6 0.6 6 5.6 0.4
05-03-2020 18.2 (11:50) 4.1 (00:00) 11.2 13.33 (15:10) 7.5 (15:20) 1.4 0 0.8 0.4 0.2
04-03-2020 21 (17:00) 7.1 (00:00) 14 5.83 (17:40) 3.06 (17:40) 1 0.8 0 0.2 0
03-03-2020 22.3 (13:00) 1.2 (00:00) 11.7 16.39 (15:00) 7.5 (14:50) 4 1.6 2.2 0 0.2

Gráficas

Temp. máximas Temp. mínimas Temp. medias Precipitaciones Rachas de viento máximas Velocidades máximas media en intervalos de 10 minutos

Datos horarios

Fecha y hora oficial Temperatura (ºC) Velocidad del viento (km/h) Dirección del viento Racha (km/h) Dirección de racha Precipitación (mm) Presión (hPa) Tendencia (hPa) Humedad (%)
2020-04-01 23:00:00 11.1 0 Calma 8 Sur 0 -- -- 88
2020-04-01 22:00:00 11.6 3 Sur 7 Sur 0 -- -- 83
2020-04-01 21:00:00 12.5 4 Nordeste 17 Norte 0 -- -- 74
2020-04-01 20:00:00 12.9 8 Norte 19 Noroeste 0 -- -- 71
2020-04-01 19:00:00 13.8 9 Noroeste 26 Noroeste 0 -- -- 65
2020-04-01 18:00:00 14.5 13 Norte 28 Norte 0 -- -- 60
2020-04-01 17:00:00 15.3 11 Norte 26 Norte 0 -- -- 57
2020-04-01 16:00:00 15.9 13 Norte 27 Norte 0 -- -- 57
2020-04-01 15:00:00 16.4 10 Norte 18 Nordeste 0 -- -- 56
2020-04-01 14:00:00 16.1 4 Noroeste 9 Norte 0 -- -- 61
2020-04-01 13:00:00 14.3 3 Norte 6 Oeste 0 -- -- 65
2020-04-01 12:00:00 12.4 3 Noroeste 5 Oeste 0 -- -- 79
2020-04-01 11:00:00 10.1 0 Calma 3 Noroeste 0.2 -- -- 89
2020-04-01 10:00:00 8.7 0 Calma 5 Sur 0 -- -- 94
2020-04-01 09:00:00 7.3 0 Calma 9 Sur 0 -- -- 95
2020-04-01 08:00:00 7.4 3 Oeste 18 Sudeste 0 -- -- 90
2020-04-01 07:00:00 7 6 Sur 17 Sudeste 0 -- -- 91
2020-04-01 06:00:00 6.4 0 Calma 7 Sudoeste 0 -- -- 94
2020-04-01 05:00:00 5.9 0 Calma 6 Noroeste 0 -- -- 96
2020-04-01 04:00:00 5.7 3 Norte 6 Sudeste 0 -- -- 95
2020-04-01 03:00:00 5.7 2 Sur 4 Noroeste 0 -- -- 94
2020-04-01 02:00:00 5.9 0 Calma 4 Nordeste 0 -- -- 93
2020-04-01 01:00:00 6.7 0 Calma 8 Sudeste 0 -- -- 91
2020-04-01 00:00:00 7.3 0 Calma 5 Sudoeste 0 -- -- 90
2020-03-31 23:00:00 7.7 2 Noroeste 4 Noroeste 0 -- -- 88
2020-03-31 22:00:00 8.2 3 Este 8 Sudeste 0 -- -- 84
2020-03-31 21:00:00 9.6 4 Sudeste 13 Sur 0 -- -- 75
2020-03-31 20:00:00 10.3 5 Sur 11 Sudoeste 0 -- -- 69
2020-03-31 19:00:00 11 5 Sur 12 Sur 0 -- -- 64
2020-03-31 18:00:00 11.2 2 Sudoeste 9 Norte 0 -- -- 61
2020-03-31 17:00:00 10.6 5 Nordeste 12 Norte 0 -- -- 62
2020-03-31 16:00:00 11.1 3 Este 13 Noroeste 0 -- -- 56
2020-03-31 15:00:00 10.4 5 Oeste 12 Noroeste 0 -- -- 57
2020-03-31 14:00:00 9 5 Norte 12 Norte 0 -- -- 61
2020-03-31 13:00:00 9 4 Sur 10 Sudeste 0 -- -- 60
2020-03-31 12:00:00 7 5 Sudeste 10 Sudeste 0 -- -- 68
2020-03-31 11:00:00 5.7 5 Este 8 Sudeste 0 -- -- 78
2020-03-31 10:00:00 2.8 0 Calma 6 Nordeste 0 -- -- 95
2020-03-31 09:00:00 1.8 0 Calma 4 Nordeste 0 -- -- 98
2020-03-31 08:00:00 1.5 0 Calma 6 Nordeste 0 -- -- 98
2020-03-31 07:00:00 1.3 0 Calma 5 Sudoeste 0 -- -- 97
2020-03-31 06:00:00 1.4 0 Calma 5 Sudoeste 0 -- -- 97
2020-03-31 05:00:00 1.7 0 Calma 2 Oeste 0 -- -- 96
2020-03-31 04:00:00 2.2 0 Calma 2 Nordeste 0 -- -- 96
2020-03-31 03:00:00 2.1 0 Calma 4 Norte 0 -- -- 96
2020-03-31 02:00:00 2.2 3 Sudeste 5 Sur 0.2 -- -- 95
2020-03-31 01:00:00 1.9 0 Calma 6 Sur 0 -- -- 95
2020-03-31 00:00:00 1.8 0 Calma 5 Nordeste 0.8 -- -- 95
2020-03-30 23:00:00 2.2 3 Sudeste 5 Sur 0.4 -- -- 95
2020-03-30 22:00:00 2.1 5 Sudeste 8 Sudeste 0.2 -- -- 95
2020-03-30 21:00:00 2 4 Noroeste 7 Norte 0 -- -- 95
2020-03-30 20:00:00 2.1 4 Oeste 10 Sur 0.6 -- -- 93
2020-03-30 19:00:00 2.2 0 Calma 7 Sur 1.4 -- -- 93
2020-03-30 18:00:00 1.9 5 Norte 23 Noroeste 4 -- -- 90
2020-03-30 17:00:00 5.3 10 Noroeste 23 Noroeste 0 -- -- 72
2020-03-30 16:00:00 3.5 8 Noroeste 26 Norte 0.4 -- -- 85
2020-03-30 15:00:00 5 10 Norte 23 Noroeste 0.4 -- -- 78
2020-03-30 14:00:00 4.5 12 Noroeste 29 Noroeste 0 -- -- 78
2020-03-30 13:00:00 3.6 14 Norte 30 Noroeste 1.4 -- -- 85
2020-03-30 12:00:00 3.4 11 Norte 29 Noroeste 2 -- -- 86
2020-03-30 11:00:00 3.2 9 Noroeste 29 Noroeste 0.8 -- -- 86
2020-03-30 10:00:00 3.2 13 Noroeste 43 Norte 1.4 -- -- 84
2020-03-30 09:00:00 3.7 10 Norte 40 Norte 1.2 -- -- 83
2020-03-30 08:00:00 3.8 6 Noroeste 18 Noroeste 1 -- -- 86
2020-03-30 07:00:00 4.1 5 Sudeste 17 Norte 0 -- -- 87
2020-03-30 06:00:00 3.9 5 Noroeste 29 Norte 1 -- -- 89
2020-03-30 05:00:00 4.6 5 Norte 21 Noroeste 0 -- -- 84
2020-03-30 04:00:00 4.6 9 Noroeste 20 Noroeste 0.2 -- -- 85
2020-03-30 03:00:00 4.6 9 Norte 30 Norte 1.4 -- -- 87
2020-03-30 02:00:00 5 13 Noroeste 27 Noroeste 1 -- -- 87
2020-03-30 01:00:00 5.9 9 Norte 27 Norte 0.4 -- -- 86
2020-03-30 00:00:00 6.3 15 Norte 30 Norte 0.2 -- -- 82
2020-03-29 23:00:00 7.1 13 Norte 35 Norte 0 -- -- 81
2020-03-29 22:00:00 7.8 15 Norte 33 Norte 0 -- -- 79
2020-03-29 21:00:00 8.4 12 Norte 30 Nordeste 0 -- -- 81
2020-03-29 20:00:00 9.3 17 Norte 31 Norte 0 -- -- 78
2020-03-29 19:00:00 10.3 12 Norte 27 Nordeste 0 -- -- 77
2020-03-29 18:00:00 12.2 14 Norte 31 Norte 0 -- -- 59
2020-03-29 17:00:00 13.1 17 Norte 35 Norte 0 -- -- 52
2020-03-29 16:00:00 14.9 13 Norte 40 Noroeste 0 -- -- 42
2020-03-29 15:00:00 14.4 16 Norte 35 Noroeste 0 -- -- 54
2020-03-29 14:00:00 14.5 14 Norte 32 Norte 0 -- -- 54
2020-03-29 13:00:00 13.5 5 Noroeste 16 Norte 0 -- -- 56
2020-03-29 12:00:00 10.7 0 Calma 6 Sudeste 0 -- -- 72
2020-03-29 11:00:00 7.6 0 Calma -- -- 0 -- -- 83
2020-03-29 10:00:00 6.1 0 Calma -- -- 0 -- -- 88
2020-03-29 09:00:00 5.3 0 Calma -- -- 0 -- -- 92
2020-03-29 08:00:00 4.8 0 Calma -- -- 0 -- -- 93
2020-03-29 07:00:00 4.5 0 Calma -- -- 0 -- -- 95
2020-03-29 06:00:00 4 0 Calma -- -- 0 -- -- 96
2020-03-29 05:00:00 3.2 0 Calma -- -- 0 -- -- 96
2020-03-29 03:00:00 3.3 0 Calma 2 Noroeste 0 -- -- 93
2020-03-29 01:00:00 4.1 0 Calma 3 Oeste 0 -- -- 92
2020-03-29 00:00:00 4.9 0 Calma 6 Sudeste 0 -- -- 90
2020-03-28 23:00:00 6.1 0 Calma 3 Sur 0 -- -- 87
2020-03-28 22:00:00 7.8 0 Calma 5 Sur 0 -- -- 82
2020-03-28 21:00:00 9.7 3 Sur 23 Noroeste 0 -- -- 74
2020-03-28 20:00:00 11.9 11 Noroeste 32 Norte 0 -- -- 67
2020-03-28 19:00:00 12.8 12 Norte 38 Norte 0 -- -- 61
2020-03-28 18:00:00 14.7 15 Norte 38 Norte 0 -- -- 52
2020-03-28 17:00:00 15.9 20 Norte 38 Norte 0 -- -- 48
2020-03-28 16:00:00 16.6 19 Norte 38 Norte 0 -- -- 43
2020-03-28 15:00:00 16.6 21 Norte 37 Norte 0 -- -- 44
2020-03-28 14:00:00 16.9 17 Norte 34 Norte 0 -- -- 43
2020-03-28 13:00:00 16.5 12 Noroeste 29 Norte 0 -- -- 45
2020-03-28 12:00:00 14.2 3 Oeste 8 Oeste 0 -- -- 55
2020-03-28 11:00:00 9.7 2 Oeste 5 Noroeste 0 -- -- 68
2020-03-28 10:00:00 5.4 0 Calma 3 Sudeste 0 -- -- 88
2020-03-28 09:00:00 0.1 0 Calma -- -- 0 -- -- 98
2020-03-28 08:00:00 -0.9 0 Calma 2 Noroeste 0 -- -- 97
2020-03-28 07:00:00 -0.7 0 Calma 2 Oeste 0 -- -- 96
2020-03-28 06:00:00 -0.4 0 Calma 2 Noroeste 0 -- -- 96
2020-03-28 05:00:00 0.2 0 Calma 4 Sur 0 -- -- 96
2020-03-28 04:00:00 0.5 0 Calma 3 Oeste 0 -- -- 95
2020-03-28 03:00:00 1.1 0 Calma 3 Sudeste 0 -- -- 95
2020-03-28 02:00:00 1.7 0 Calma 3 Sur 0 -- -- 94
2020-03-28 01:00:00 2.4 0 Calma 3 Oeste 0 -- -- 92
2020-03-28 00:00:00 3.3 0 Calma 4 Oeste 0 -- -- 90
2020-03-27 23:00:00 4.3 0 Calma 3 Oeste 0 -- -- 87
2020-03-27 22:00:00 5.8 0 Calma 9 Sudeste 0 -- -- 83
2020-03-27 21:00:00 7.5 3 Sudeste 9 Sur 0 -- -- 77
2020-03-27 20:00:00 10.3 6 Noroeste 20 Norte 0 -- -- 65
2020-03-27 19:00:00 11.2 6 Noroeste 28 Noroeste 0 -- -- 62
2020-03-27 18:00:00 12.6 13 Noroeste 31 Noroeste 0 -- -- 59
2020-03-27 17:00:00 13.2 13 Noroeste 35 Noroeste 0 -- -- 60
2020-03-27 16:00:00 13.7 16 Norte 31 Noroeste 0 -- -- 53
2020-03-27 15:00:00 13.7 11 Noroeste 30 Norte 0 -- -- 54
2020-03-27 14:00:00 13.1 12 Noroeste 23 Noroeste 0 -- -- 46
2020-03-27 13:00:00 12.9 10 Norte 25 Nordeste 0 -- -- 44
2020-03-27 12:00:00 11.9 5 Noroeste 15 Noroeste 0 -- -- 43
2020-03-27 11:00:00 9.2 2 Sur 5 Sudeste 0 -- -- 53
2020-03-27 10:00:00 4.8 0 Calma 4 Nordeste 0 -- -- 75
2020-03-27 09:00:00 0.3 0 Calma 4 Este 0 -- -- 95
2020-03-27 08:00:00 -0.7 0 Calma 4 Oeste 0 -- -- 94
2020-03-27 07:00:00 -0.6 0 Calma 4 Noroeste 0 -- -- 92
2020-03-27 06:00:00 0.1 0 Calma 2 Oeste 0 -- -- 91
2020-03-27 05:00:00 1.2 0 Calma 4 Sur 0 -- -- 87
2020-03-27 04:00:00 2.3 0 Calma 9 Sudeste 0 -- -- 83
2020-03-27 03:00:00 4 4 Sur 14 Sudeste 0 -- -- 76
2020-03-27 02:00:00 4.9 8 Sudeste 12 Sur 0 -- -- 73
2020-03-27 01:00:00 5.7 0 Calma 22 Norte 0 -- -- 68
2020-03-27 00:00:00 7.5 8 Norte 24 Noroeste 0 -- -- 59
2020-03-26 23:00:00 7.7 8 Norte 25 Norte 0 -- -- 59
2020-03-26 22:00:00 8 11 Norte 30 Norte 0 -- -- 59
2020-03-26 21:00:00 8.4 15 Norte 30 Norte 0 -- -- 61
2020-03-26 20:00:00 8.9 9 Norte 36 Norte 0 -- -- 64
2020-03-26 19:00:00 10.2 15 Norte 37 Norte 0 -- -- 58
2020-03-26 18:00:00 11.6 15 Norte 34 Norte 0 -- -- 52
2020-03-26 17:00:00 12.5 14 Norte 35 Norte 0 -- -- 50
2020-03-26 16:00:00 12.7 16 Norte 37 Norte 0 -- -- 48
2020-03-26 15:00:00 12.5 19 Norte 37 Nordeste 0 -- -- 41
2020-03-26 14:00:00 12.1 21 Nordeste 40 Nordeste 0 -- -- 46
2020-03-26 13:00:00 11.8 14 Norte 35 Nordeste 0 -- -- 47
2020-03-26 12:00:00 11.2 16 Nordeste 32 Nordeste 0 -- -- 51
2020-03-26 11:00:00 9.4 6 Oeste 17 Noroeste 0 -- -- 61
2020-03-26 10:00:00 7.2 0 Calma 5 Este 0 -- -- 76
2020-03-26 09:00:00 2.8 0 Calma 3 Este 0 -- -- 95
2020-03-26 08:00:00 2.6 0 Calma 3 Sudoeste 0 -- -- 93
2020-03-26 07:00:00 2.9 0 Calma 2 Sudoeste 0 -- -- 92
2020-03-26 06:00:00 2.9 0 Calma 8 Sur 0 -- -- 90
2020-03-26 05:00:00 2.9 0 Calma 4 Norte 0 -- -- 91
2020-03-26 04:00:00 3 0 Calma 5 Oeste 0 -- -- 89
2020-03-26 03:00:00 3.7 0 Calma 15 Sudeste 0 -- -- 87
2020-03-26 02:00:00 4.8 8 Sudeste 19 Sur 0 -- -- 81
2020-03-26 01:00:00 5.7 13 Sur 22 Sudeste 0 -- -- 79
2020-03-26 00:00:00 6.2 10 Sudeste 18 Sudeste 0 -- -- 78
2020-03-25 23:00:00 7.6 10 Sudeste 17 Sudeste 0 -- -- 75
2020-03-25 22:00:00 9.1 3 Sur 21 Noroeste 0 -- -- 70
2020-03-25 21:00:00 12 11 Noroeste 30 Norte 0 -- -- 63
2020-03-25 20:00:00 12.8 14 Norte 29 Norte 0 -- -- 65
2020-03-25 19:00:00 14.3 14 Norte 36 Norte 0 -- -- 59
2020-03-25 18:00:00 15.8 14 Norte 39 Norte 0 -- -- 55
2020-03-25 17:00:00 16 16 Norte 41 Norte 0 -- -- 57
2020-03-25 16:00:00 17 14 Norte 31 Norte 0 -- -- 54
2020-03-25 15:00:00 17.8 14 Norte 28 Nordeste 0 -- -- 51
2020-03-25 14:00:00 18.1 10 Nordeste 28 Noroeste 0 -- -- 44
2020-03-25 13:00:00 17.5 12 Nordeste 27 Nordeste 0 -- -- 41
2020-03-25 12:00:00 15.8 5 Noroeste 14 Norte 0 -- -- 56
2020-03-25 11:00:00 12.3 0 Calma 4 Sudeste 0 -- -- 75
2020-03-25 10:00:00 7.8 0 Calma 7 Noroeste 0 -- -- 95
2020-03-25 09:00:00 5.1 0 Calma 9 Sur 0 -- -- 98
2020-03-25 08:00:00 4 3 Sur 5 Sur 0 -- -- 98
2020-03-25 07:00:00 3.7 0 Calma 3 Sur 0 -- -- 97
2020-03-25 06:00:00 3.8 0 Calma -- -- 0 -- -- 97
2020-03-25 05:00:00 3.8 0 Calma -- -- 0 -- -- 96
2020-03-25 04:00:00 4.5 0 Calma -- -- 0 -- -- 96
2020-03-25 03:00:00 5.1 0 Calma -- -- 0 -- -- 95
2020-03-25 02:00:00 6 0 Calma -- -- 0 -- -- 94
2020-03-25 01:00:00 6.9 0 Calma 2 Oeste 0 -- -- 92
2020-03-25 00:00:00 8 0 Calma 3 Sudoeste 0 -- -- 91
2020-03-24 23:00:00 9 0 Calma 4 Sur 0 -- -- 89
2020-03-24 22:00:00 10.4 0 Calma 4 Sur 0 -- -- 84
2020-03-24 21:00:00 12.4 3 Sur 9 Sur 0 -- -- 79
2020-03-24 20:00:00 15.7 7 Norte 31 Norte 0 -- -- 65
2020-03-24 19:00:00 16.5 12 Norte 32 Noroeste 0 -- -- 62
2020-03-24 18:00:00 17.9 14 Noroeste 37 Noroeste 0 -- -- 58
2020-03-24 17:00:00 18.8 15 Noroeste 32 Noroeste 0 -- -- 56
2020-03-24 16:00:00 19.4 17 Norte 35 Norte 0 -- -- 55
2020-03-24 15:00:00 19.7 17 Norte 30 Norte 0 -- -- 53
2020-03-24 14:00:00 19.5 13 Norte 32 Norte 0 -- -- 51
2020-03-24 13:00:00 19 12 Norte 22 Norte 0 -- -- 51
2020-03-24 12:00:00 17.1 5 Norte 8 Nordeste 0 -- -- 59
2020-03-24 11:00:00 13.5 3 Este 4 Este 0 -- -- 71
2020-03-24 10:00:00 9.3 0 Calma 4 Este 0 -- -- 92
2020-03-24 09:00:00 5.6 0 Calma 4 Sudeste 0 -- -- 98
2020-03-24 08:00:00 4.7 2 Sur 5 Sudeste 0 -- -- 98
2020-03-24 07:00:00 4.6 2 Sudeste 5 Este 0 -- -- 98
2020-03-24 06:00:00 4.4 0 Calma 4 Sur 0 -- -- 97
2020-03-24 05:00:00 4.6 0 Calma 3 Noroeste 0 -- -- 96
2020-03-24 04:00:00 5.2 0 Calma 3 Sudeste 0 -- -- 96
2020-03-24 03:00:00 5.8 0 Calma 3 Sudoeste 0 -- -- 95
2020-03-24 02:00:00 6.5 0 Calma 4 Sudoeste 0 -- -- 95
2020-03-24 01:00:00 7.5 0 Calma 5 Sur 0 -- -- 93
2020-03-24 00:00:00 8.9 0 Calma 4 Sudoeste 0 -- -- 91
2020-03-23 23:00:00 10.3 0 Calma 2 Oeste 0 -- -- 90
2020-03-23 22:00:00 11.1 0 Calma 5 Sudeste 0 -- -- 87
2020-03-23 21:00:00 11.7 0 Calma 9 Nordeste 0 -- -- 84
2020-03-23 20:00:00 11.8 5 Noroeste 19 Norte 0 -- -- 83
2020-03-23 19:00:00 12.1 8 Norte 31 Norte 0 -- -- 81
2020-03-23 18:00:00 12.4 15 Norte 35 Noroeste 0 -- -- 79
2020-03-23 17:00:00 13 20 Noroeste 40 Noroeste 0 -- -- 79
2020-03-23 16:00:00 14.6 19 Noroeste 38 Noroeste 0 -- -- 74
2020-03-23 15:00:00 16 16 Noroeste 35 Noroeste 0 -- -- 67
2020-03-23 14:00:00 16.2 14 Norte 30 Noroeste 0 -- -- 66
2020-03-23 13:00:00 15.8 12 Norte 29 Norte 0 -- -- 62
2020-03-23 12:00:00 14.8 6 Nordeste 13 Norte 0 -- -- 61
2020-03-23 11:00:00 12.3 0 Calma 3 Norte 0 -- -- 75
2020-03-23 10:00:00 10.9 0 Calma 3 Noroeste 0 -- -- 85
2020-03-23 09:00:00 9.6 0 Calma 3 Sur 0 -- -- 90
2020-03-23 08:00:00 8.7 0 Calma 2 Sudoeste 0 -- -- 94
2020-03-23 07:00:00 8.5 0 Calma 4 Noroeste 0 -- -- 94
2020-03-23 06:00:00 8.4 2 Sur 7 Sur 0 -- -- 94
2020-03-23 05:00:00 8.1 0 Calma 3 Noroeste 0 -- -- 96
2020-03-23 04:00:00 7.7 0 Calma 2 Sudeste 0 -- -- 96
2020-03-23 03:00:00 7.4 0 Calma 4 Sudeste 0 -- -- 93
2020-03-23 02:00:00 8.2 2 Sur 4 Sudeste 0 -- -- 93
2020-03-23 01:00:00 8.5 0 Calma 5 Sudoeste 0 -- -- 89
2020-03-23 00:00:00 10.1 0 Calma 3 Sudoeste 0 -- -- 88
2020-03-22 23:00:00 10.3 0 Calma 9 Sur 0 -- -- 87
2020-03-22 22:00:00 10.7 5 Sudeste 25 Noroeste 0 -- -- 84
2020-03-22 21:00:00 12.4 13 Norte 27 Norte 0 -- -- 75
2020-03-22 20:00:00 12.6 9 Noroeste 27 Norte 0 -- -- 76
2020-03-22 19:00:00 13.7 14 Norte 27 Norte 0 -- -- 73
2020-03-22 18:00:00 15.9 11 Noroeste 31 Norte 0 -- -- 65
2020-03-22 17:00:00 16.5 20 Norte 39 Norte 0 -- -- 61
2020-03-22 16:00:00 16.8 18 Norte 37 Norte 0 -- -- 60
2020-03-22 15:00:00 17.1 17 Norte 31 Norte 0 -- -- 63
2020-03-22 14:00:00 16.8 17 Noroeste 32 Norte 0 -- -- 64
2020-03-22 13:00:00 16.5 5 Sur 11 Sudoeste 0 -- -- 66
2020-03-22 12:00:00 14.7 3 Sudeste 9 Este 0 -- -- 76
2020-03-22 11:00:00 11.9 5 Sur 8 Sur 0 -- -- 89
2020-03-22 10:00:00 9.3 0 Calma 7 Sudeste 0 -- -- 95
2020-03-22 09:00:00 8.6 6 Sudeste 11 Sudeste 0 -- -- 96
2020-03-22 08:00:00 8.2 7 Sudeste 11 Sudeste 0 -- -- 95
2020-03-22 07:00:00 8.4 6 Sudeste 9 Sudeste 0 -- -- 95
2020-03-22 06:00:00 8.6 4 Sur 9 Sudeste 0 -- -- 95
2020-03-22 05:00:00 9 5 Sudeste 9 Sudeste 0 -- -- 96
2020-03-22 04:00:00 9.1 4 Sudeste 8 Sudeste 0 -- -- 97
2020-03-22 03:00:00 8.8 4 Sur 7 Oeste 0 -- -- 97
2020-03-22 02:00:00 8.6 4 Sur 6 Sur 0 -- -- 98
2020-03-22 01:00:00 7.9 0 Calma 4 Sur 0 -- -- 97
2020-03-22 00:00:00 8.3 0 Calma 3 Este 0 -- -- 96
2020-03-21 23:00:00 9.2 0 Calma 4 Sur 0 -- -- 95
2020-03-21 22:00:00 10.2 0 Calma 4 Sudeste 0 -- -- 94
2020-03-21 21:00:00 11.4 4 Sur 7 Sur 0 -- -- 93
2020-03-21 20:00:00 12.5 5 Sur 10 Sudeste 0 -- -- 91
2020-03-21 19:00:00 14.1 3 Sur 19 Noroeste 2.2 -- -- 86
2020-03-21 18:00:00 16.4 15 Norte 35 Norte 0.4 -- -- 69
2020-03-21 17:00:00 17.7 17 Norte 37 Norte 0 -- -- 63
2020-03-21 16:00:00 19.1 13 Noroeste 30 Norte 0 -- -- 56
2020-03-21 15:00:00 20.7 13 Norte 31 Norte 0 -- -- 50
2020-03-21 14:00:00 20.6 10 Norte 18 Noroeste 0 -- -- 48
2020-03-21 13:00:00 20.7 3 Sur 10 Sur 0 -- -- 43
2020-03-21 12:00:00 19.3 5 Sur 15 Sur 0 -- -- 46
2020-03-21 11:00:00 15.7 0 Calma 4 Sudeste 0 -- -- 70
2020-03-21 10:00:00 10.7 0 Calma 2 Norte 0 -- -- 91
2020-03-21 09:00:00 7.4 0 Calma 2 Noroeste 0 -- -- 97
2020-03-21 08:00:00 6.2 0 Calma 6 Sudoeste 0 -- -- 96
2020-03-21 07:00:00 6.2 2 Noroeste 8 Noroeste 0 -- -- 95
2020-03-21 06:00:00 6.9 0 Calma 4 Oeste 0 -- -- 94
2020-03-21 05:00:00 7.3 0 Calma 4 Sudoeste 0 -- -- 94
2020-03-21 04:00:00 7.8 0 Calma 5 Sudeste 0 -- -- 91
2020-03-21 03:00:00 8.9 0 Calma 16 Sur 0 -- -- 87
2020-03-21 02:00:00 10.7 10 Sur 18 Sudeste 0 -- -- 81
2020-03-21 01:00:00 10.9 5 Sur 12 Sudeste 0 -- -- 81
2020-03-21 00:00:00 10.3 7 Sur 12 Sudeste 0 -- -- 86
2020-03-20 23:00:00 9.6 0 Calma 5 Este 0 -- -- 89
2020-03-20 22:00:00 10.6 0 Calma 4 Sur 0 -- -- 84
2020-03-20 21:00:00 12.1 2 Sur 10 Norte 0 -- -- 80
2020-03-20 20:00:00 15 4 Norte 12 Este 0 -- -- 70
2020-03-20 19:00:00 16.7 4 Norte 18 Noroeste 0 -- -- 60
2020-03-20 18:00:00 17.6 8 Nordeste 19 Nordeste 0 -- -- 59
2020-03-20 17:00:00 19 7 Norte 18 Sudeste 0 -- -- 58
2020-03-20 16:00:00 19 9 Sudeste 19 Sur 0 -- -- 48
2020-03-20 15:00:00 19 7 Sudoeste 20 Oeste 0 -- -- 49
2020-03-20 14:00:00 18.4 8 Sudoeste 21 Sudoeste 0 -- -- 51
2020-03-20 13:00:00 17.7 11 Sudoeste 34 Sur 0 -- -- 51
2020-03-20 12:00:00 16.7 9 Sudoeste 22 Sur 0 -- -- 57
2020-03-20 11:00:00 12.4 0 Calma 12 Sudeste 0 -- -- 82
2020-03-20 10:00:00 9.3 0 Calma 4 Sudoeste 0 -- -- 98
2020-03-20 09:00:00 7.2 0 Calma 3 Noroeste 0 -- -- 99
2020-03-20 08:00:00 5.5 0 Calma 3 Sudeste 0 -- -- 98
2020-03-20 07:00:00 5.3 0 Calma 3 Oeste 0 -- -- 98
2020-03-20 06:00:00 5.6 0 Calma 3 Sur 0 -- -- 97
2020-03-20 05:00:00 6 0 Calma 3 Oeste 0 -- -- 97
2020-03-20 04:00:00 6.5 2 Sudeste 5 Sudeste 0 -- -- 97
2020-03-20 03:00:00 6.8 0 Calma 3 Sudeste 0 -- -- 96
2020-03-20 02:00:00 7.3 0 Calma 3 Oeste 0 -- -- 95
2020-03-20 01:00:00 8 0 Calma 2 Sudeste 0 -- -- 94
2020-03-20 00:00:00 8.8 2 Sur 3 Sudeste 0 -- -- 94
2020-03-19 23:00:00 9.7 0 Calma 3 Sur 0 -- -- 92
2020-03-19 22:00:00 10.9 0 Calma 9 Norte 0 -- -- 90
2020-03-19 21:00:00 12.2 6 Norte 14 Nordeste 0 -- -- 89
2020-03-19 20:00:00 13.7 9 Nordeste 20 Nordeste 0 -- -- 83
2020-03-19 19:00:00 15.5 11 Nordeste 19 Nordeste 0 -- -- 77
2020-03-19 18:00:00 17.9 8 Nordeste 20 Nordeste 0 -- -- 64
2020-03-19 17:00:00 19.4 9 Norte 21 Norte 0 -- -- 55
2020-03-19 16:00:00 20.4 13 Nordeste 24 Nordeste 0 -- -- 55
2020-03-19 15:00:00 21.3 14 Nordeste 22 Norte 0 -- -- 54
2020-03-19 14:00:00 22.7 6 Norte 10 Nordeste 0 -- -- 45
2020-03-19 13:00:00 20.1 0 Calma 4 Noroeste 0 -- -- 62
2020-03-19 12:00:00 15.6 0 Calma 3 Nordeste 0 -- -- 74
2020-03-19 11:00:00 11.3 0 Calma 2 Nordeste 0 -- -- 95
2020-03-19 10:00:00 8.3 0 Calma 0 Calma 0 -- -- 99
2020-03-19 09:00:00 6 0 Calma 3 Sudeste 0 -- -- 98
2020-03-19 08:00:00 5.3 0 Calma 3 Sudeste 0 -- -- 98
2020-03-19 07:00:00 5.5 0 Calma 2 Sudeste 0 -- -- 97
2020-03-19 06:00:00 6 0 Calma 2 Sur 0 -- -- 97
2020-03-19 05:00:00 6.3 0 Calma 2 Sudeste 0 -- -- 97
2020-03-19 04:00:00 6.6 0 Calma 2 Sur 0 -- -- 97
2020-03-19 03:00:00 7.1 0 Calma 2 Sudeste 0 -- -- 96
2020-03-19 02:00:00 7.5 0 Calma 2 Sur 0 -- -- 96
2020-03-19 01:00:00 7.9 0 Calma 3 Sur 0 -- -- 95
2020-03-19 00:00:00 8.5 0 Calma 3 Sudeste 0 -- -- 93
2020-03-18 23:00:00 9.4 0 Calma -- -- 0 -- -- 91
2020-03-18 22:00:00 10.6 0 Calma 3 Sur 0 -- -- 88
2020-03-18 21:00:00 12.1 0 Calma 3 Sur 0 -- -- 84
2020-03-18 20:00:00 14.4 2 Sudoeste 13 Nordeste 0 -- -- 77
2020-03-18 19:00:00 17.3 7 Nordeste 16 Norte 0 -- -- 62
2020-03-18 18:00:00 19.1 6 Norte 20 Norte 0 -- -- 56
2020-03-18 17:00:00 19.9 10 Norte 23 Norte 0 -- -- 54
2020-03-18 16:00:00 20.1 13 Norte 22 Norte 0 -- -- 52
2020-03-18 15:00:00 19.9 5 Norte 15 Norte 0 -- -- 54
2020-03-18 14:00:00 18.4 8 Nordeste 13 Nordeste 0 -- -- 60
2020-03-18 13:00:00 15 0 Calma 4 Noroeste 0 -- -- 73
2020-03-18 12:00:00 11.5 0 Calma 3 Noroeste 0 -- -- 91
2020-03-18 11:00:00 8.4 0 Calma 3 Este 0 -- -- 99
2020-03-18 10:00:00 6.3 0 Calma 3 Sudeste 0 -- -- 99
2020-03-18 09:00:00 4.7 0 Calma 3 Nordeste 0 -- -- 99
2020-03-18 08:00:00 4.2 0 Calma 4 Oeste 0 -- -- 98
2020-03-18 07:00:00 4.4 0 Calma 3 Sur 0 -- -- 98
2020-03-18 06:00:00 4.7 0 Calma 2 Sur 0 -- -- 98
2020-03-18 05:00:00 5.1 0 Calma 3 Sur 0 -- -- 97
2020-03-18 04:00:00 5.4 0 Calma 3 Sur 0 -- -- 97
2020-03-18 03:00:00 5.9 0 Calma 3 Sur 0 -- -- 97
2020-03-18 02:00:00 6.2 0 Calma 3 Este 0 -- -- 97
2020-03-18 01:00:00 6.6 0 Calma 5 Noroeste 0 -- -- 96
2020-03-18 00:00:00 7.2 2 Sudeste 4 Este 0 -- -- 96
2020-03-17 23:00:00 7.9 0 Calma 8 Sudeste 0 -- -- 94
2020-03-17 22:00:00 8.7 2 Sur 6 Sur 0 -- -- 93
2020-03-17 21:00:00 9.8 0 Calma 9 Nordeste 0 -- -- 90
2020-03-17 20:00:00 11.6 4 Nordeste 14 Nordeste 0 -- -- 86
2020-03-17 19:00:00 13.4 4 Norte 15 Norte 0 -- -- 79
2020-03-17 18:00:00 14.7 8 Norte 14 Nordeste 0 -- -- 74
2020-03-17 17:00:00 15.6 8 Nordeste 15 Nordeste 0 -- -- 68
2020-03-17 16:00:00 16 6 Norte 13 Norte 0 -- -- 67
2020-03-17 15:00:00 15.2 3 Noroeste 11 Norte 0 -- -- 67
2020-03-17 14:00:00 14.7 4 Norte 16 Noroeste 0 -- -- 67
2020-03-17 13:00:00 14.3 0 Calma 8 Este 0 -- -- 65
2020-03-17 12:00:00 13 5 Este 9 Sudeste 0 -- -- 69
2020-03-17 11:00:00 11.1 4 Sudeste 7 Sudeste 0 -- -- 76
2020-03-17 10:00:00 8.8 6 Sudeste 8 Sur 0 -- -- 96
2020-03-17 09:00:00 6.4 0 Calma 5 Norte 0 -- -- 98
2020-03-17 08:00:00 6.3 2 Norte 5 Sudeste 0 -- -- 98
2020-03-17 07:00:00 6.7 0 Calma 4 Sudeste 0 -- -- 98
2020-03-17 06:00:00 6.6 0 Calma 3 Oeste 0 -- -- 98
2020-03-17 05:00:00 6.6 0 Calma 4 Sudeste 0 -- -- 97
2020-03-17 04:00:00 6.6 3 Sur 5 Oeste 0 -- -- 97
2020-03-17 03:00:00 6.7 0 Calma 4 Noroeste 0 -- -- 96
2020-03-17 02:00:00 6.7 0 Calma 4 Sudeste 0 -- -- 96
2020-03-17 01:00:00 6.8 0 Calma 6 Sur 0 -- -- 95
2020-03-17 00:00:00 6.9 4 Sur 12 Sur 0.2 -- -- 94
2020-03-16 23:00:00 7.1 4 Sudoeste 13 Sur 0.6 -- -- 92
2020-03-16 22:00:00 7.5 4 Sudoeste 15 Norte 0.8 -- -- 87
2020-03-16 21:00:00 7.9 9 Norte 22 Norte 0.6 -- -- 81
2020-03-16 20:00:00 8 8 Nordeste 26 Nordeste 0 -- -- 80
2020-03-16 19:00:00 8 14 Norte 30 Nordeste 0.4 -- -- 78
2020-03-16 18:00:00 8.4 15 Norte 31 Norte 0.2 -- -- 76
2020-03-16 17:00:00 7.9 6 Norte 27 Norte 0.8 -- -- 82
2020-03-16 16:00:00 8.1 15 Norte 33 Nordeste 1 -- -- 78
2020-03-16 15:00:00 9.4 14 Norte 31 Noroeste 0 -- -- 66
2020-03-16 14:00:00 8.6 12 Norte 31 Norte 0.8 -- -- 79
2020-03-16 13:00:00 8.3 9 Norte 26 Norte 1.4 -- -- 76
2020-03-16 12:00:00 8 10 Norte 28 Nordeste 0.6 -- -- 78
2020-03-16 11:00:00 7.7 10 Norte 27 Norte 0.6 -- -- 78
2020-03-16 10:00:00 5.6 9 Sur 26 Sudeste 1 -- -- 90
2020-03-16 09:00:00 5.2 10 Sudeste 18 Sudeste 0.4 -- -- 90
2020-03-16 08:00:00 4.8 8 Sudeste 15 Sur 1.6 -- -- 92
2020-03-16 07:00:00 4.7 3 Sudeste 11 Sudeste 1.8 -- -- 94
2020-03-16 06:00:00 4.6 4 Sur 12 Sudeste 0 -- -- 91
2020-03-16 05:00:00 4.7 8 Sudeste 14 Sudeste 0.4 -- -- 92
2020-03-16 04:00:00 4.9 7 Sudeste 13 Sur 0.2 -- -- 92
2020-03-16 03:00:00 5.1 2 Oeste 11 Norte 0.8 -- -- 90
2020-03-16 02:00:00 5.7 5 Norte 24 Norte 1.4 -- -- 83
2020-03-16 01:00:00 6.6 10 Norte 27 Norte 0.2 -- -- 77
2020-03-16 00:00:00 7 9 Norte 24 Norte 0 -- -- 74
2020-03-15 23:00:00 6.8 11 Noroeste 28 Norte 0.2 -- -- 77
2020-03-15 22:00:00 7.8 14 Noroeste 34 Noroeste 0.2 -- -- 70
2020-03-15 21:00:00 7.7 15 Norte 36 Norte 0.2 -- -- 73
2020-03-15 20:00:00 8.8 20 Norte 44 Nordeste 0 -- -- 68
2020-03-15 19:00:00 8.7 19 Norte 41 Norte 1.4 -- -- 73
2020-03-15 18:00:00 10.3 16 Norte 44 Norte 0.4 -- -- 78
2020-03-15 17:00:00 13.8 17 Norte 38 Norte 0 -- -- 60
2020-03-15 16:00:00 14.3 16 Norte 47 Norte 0 -- -- 56
2020-03-15 15:00:00 13.4 27 Norte 54 Noroeste 0 -- -- 60
2020-03-15 14:00:00 13.2 27 Norte 55 Norte 0 -- -- 73
2020-03-15 13:00:00 14 24 Norte 45 Norte 0 -- -- 67
2020-03-15 12:00:00 14.9 15 Norte 35 Norte 0 -- -- 61
2020-03-15 11:00:00 12.6 6 Sur 12 Sudeste 0 -- -- 72
2020-03-15 10:00:00 6.5 2 Sudeste 5 Sur 0 -- -- 100
2020-03-15 09:00:00 1.4 0 Calma 4 Sudeste 0 -- -- 98
2020-03-15 08:00:00 1.2 0 Calma 4 Oeste 0 -- -- 98
2020-03-15 07:00:00 1.3 0 Calma 3 Noroeste 0 -- -- 97
2020-03-15 06:00:00 1.9 3 Este 4 Noroeste 0 -- -- 97
2020-03-15 05:00:00 2.1 0 Calma 4 Sudeste 0 -- -- 96
2020-03-15 04:00:00 2.7 0 Calma 4 Norte 0 -- -- 96
2020-03-15 03:00:00 3.4 2 Este 5 Sudeste 0 -- -- 96
2020-03-15 02:00:00 4 2 Sudeste 4 Noroeste 0 -- -- 95
2020-03-15 01:00:00 4.7 0 Calma 3 Oeste 0 -- -- 94
2020-03-15 00:00:00 5.5 0 Calma 3 Sur 0 -- -- 92
2020-03-14 23:00:00 6.4 0 Calma 3 Oeste 0 -- -- 90
2020-03-14 22:00:00 8 0 Calma 5 Sudoeste 0 -- -- 86
2020-03-14 21:00:00 9.6 3 Sur 12 Noroeste 0 -- -- 82
2020-03-14 20:00:00 11.5 6 Noroeste 21 Norte 0 -- -- 76
2020-03-14 19:00:00 12.9 10 Noroeste 25 Norte 0 -- -- 69
2020-03-14 18:00:00 15.2 10 Noroeste 29 Noroeste 0 -- -- 62
2020-03-14 17:00:00 16.1 15 Norte 31 Noroeste 0 -- -- 58
2020-03-14 16:00:00 16.5 12 Norte 28 Noroeste 0 -- -- 57
2020-03-14 15:00:00 16.6 12 Norte 23 Norte 0 -- -- 53
2020-03-14 14:00:00 16.1 6 Nordeste 16 Oeste 0 -- -- 54
2020-03-14 13:00:00 14.9 7 Norte 15 Norte 0 -- -- 57
2020-03-14 12:00:00 13.5 2 Sur 9 Sur 0 -- -- 59
2020-03-14 11:00:00 12.1 0 Calma 8 Sur 0 -- -- 63
2020-03-14 10:00:00 9.2 4 Sudeste 5 Sudeste 0 -- -- 75
2020-03-14 09:00:00 8.1 4 Sudeste 10 Sudeste 0 -- -- 80
2020-03-14 08:00:00 7.1 0 Calma 6 Sudeste 0 -- -- 94
2020-03-14 07:00:00 7 0 Calma 3 Sudeste 0 -- -- 94
2020-03-14 06:00:00 6.9 0 Calma -- -- 0 -- -- 94
2020-03-14 05:00:00 7 0 Calma 4 Noroeste 0 -- -- 94
2020-03-14 04:00:00 6.9 3 Sur 4 Sur 0 -- -- 94
2020-03-14 03:00:00 6.7 0 Calma 3 Nordeste 0 -- -- 94
2020-03-14 02:00:00 6.4 0 Calma 3 Noroeste 0 -- -- 94
2020-03-14 01:00:00 6.5 0 Calma 4 Este 0 -- -- 93
2020-03-14 00:00:00 6.4 0 Calma 6 Sudeste 0 -- -- 92
2020-03-13 23:00:00 6.6 0 Calma 5 Sudeste 0 -- -- 91
2020-03-13 22:00:00 7.1 0 Calma 13 Sudeste 0 -- -- 87
2020-03-13 21:00:00 8 8 Sur 16 Sur 0 -- -- 85
2020-03-13 20:00:00 8.2 0 Calma 6 Sur 0 -- -- 83
2020-03-13 19:00:00 10.4 0 Calma 26 Noroeste 0 -- -- 76
2020-03-13 18:00:00 11.6 14 Noroeste 31 Noroeste 0 -- -- 71
2020-03-13 17:00:00 12.6 12 Noroeste 35 Noroeste 0 -- -- 67
2020-03-13 16:00:00 12.2 15 Noroeste 35 Noroeste 0 -- -- 70
2020-03-13 15:00:00 12.3 19 Noroeste 37 Noroeste 0 -- -- 68
2020-03-13 14:00:00 13.6 17 Norte 32 Norte 0 -- -- 66
2020-03-13 13:00:00 13.2 15 Noroeste 27 Noroeste 0 -- -- 66
2020-03-13 12:00:00 12.6 9 Norte 23 Nordeste 0 -- -- 71
2020-03-13 11:00:00 11.6 8 Nordeste 20 Nordeste 0 -- -- 75
2020-03-13 10:00:00 10.2 4 Nordeste 9 Nordeste 0 -- -- 80
2020-03-13 09:00:00 9.4 0 Calma 5 Sur 0 -- -- 90
2020-03-13 08:00:00 8.9 5 Sur 8 Sur 0 -- -- 89
2020-03-13 07:00:00 9.3 6 Norte 15 Norte 0 -- -- 83
2020-03-13 06:00:00 9.4 3 Noroeste 15 Norte 0 -- -- 83
2020-03-13 05:00:00 9.7 9 Norte 21 Noroeste 0 -- -- 81
2020-03-13 04:00:00 9.7 8 Norte 27 Norte 0 -- -- 81
2020-03-13 03:00:00 10.1 8 Norte 18 Norte 0 -- -- 82
2020-03-13 02:00:00 10.4 10 Norte 24 Noroeste 0 -- -- 80
2020-03-13 01:00:00 10.4 8 Norte 21 Norte 0 -- -- 81
2020-03-13 00:00:00 10.7 13 Norte 26 Noroeste 0 -- -- 79
2020-03-12 23:00:00 11.1 12 Noroeste 25 Noroeste 0 -- -- 79
2020-03-12 22:00:00 11.5 9 Noroeste 22 Norte 0 -- -- 77
2020-03-12 21:00:00 11.7 12 Norte 23 Norte 0 -- -- 77
2020-03-12 20:00:00 11.8 11 Norte 29 Noroeste 0 -- -- 76
2020-03-12 19:00:00 12.1 13 Noroeste 31 Noroeste 0 -- -- 75
2020-03-12 18:00:00 12.3 14 Noroeste 37 Norte 0 -- -- 75
2020-03-12 17:00:00 12.5 18 Noroeste 39 Norte 0 -- -- 76
2020-03-12 16:00:00 13.9 13 Noroeste 26 Noroeste 0 -- -- 78
2020-03-12 15:00:00 14.4 11 Norte 27 Norte 0 -- -- 75
2020-03-12 14:00:00 14.4 9 Noroeste 19 Norte 0 -- -- 76
2020-03-12 13:00:00 14.1 0 Calma 8 Nordeste 0 -- -- 81
2020-03-12 12:00:00 12.8 3 Nordeste 8 Nordeste 0 -- -- 85
2020-03-12 11:00:00 12 0 Calma 2 Noroeste 0 -- -- 86
2020-03-12 10:00:00 10.7 0 Calma 5 Norte 0 -- -- 90
2020-03-12 09:00:00 10 0 Calma 2 Sudeste 0 -- -- 92
2020-03-12 08:00:00 9.7 0 Calma 3 Noroeste 0 -- -- 92
2020-03-12 07:00:00 9.8 0 Calma 3 Sudoeste 0 -- -- 90
2020-03-12 06:00:00 9.6 0 Calma 3 Sudoeste 0 -- -- 90
2020-03-12 05:00:00 9.5 0 Calma 4 Norte 0 -- -- 91
2020-03-12 04:00:00 9.5 0 Calma 6 Noroeste 0 -- -- 90
2020-03-12 03:00:00 9.5 5 Sur 12 Sur 0 -- -- 88
2020-03-12 02:00:00 8.7 3 Sudeste 12 Sudeste 0 -- -- 91
2020-03-12 01:00:00 8 3 Sur 9 Sudeste 0 -- -- 91
2020-03-12 00:00:00 8.8 4 Sudeste 10 Sudeste 0 -- -- 87
2020-03-11 23:00:00 9.3 3 Sur 5 Sudeste 0 -- -- 87
2020-03-11 22:00:00 10.6 0 Calma 5 Sudoeste 0 -- -- 83
2020-03-11 21:00:00 12.4 0 Calma 7 Sur 0 -- -- 77
2020-03-11 20:00:00 15.1 2 Sudeste 15 Norte 0 -- -- 67
2020-03-11 19:00:00 18.5 9 Norte 27 Noroeste 0 -- -- 52
2020-03-11 18:00:00 20.2 13 Norte 41 Norte 0 -- -- 51
2020-03-11 17:00:00 21.2 13 Noroeste 36 Norte 0 -- -- 47
2020-03-11 16:00:00 20.9 17 Norte 37 Norte 0 -- -- 52
2020-03-11 15:00:00 20.8 19 Norte 33 Norte 0 -- -- 50
2020-03-11 14:00:00 20.3 11 Norte 33 Noroeste 0 -- -- 49
2020-03-11 13:00:00 18.1 3 Norte 9 Nordeste 0 -- -- 56
2020-03-11 12:00:00 14.5 3 Noroeste 8 Noroeste 0 -- -- 65
2020-03-11 11:00:00 10.5 0 Calma 3 Este 0 -- -- 77
2020-03-11 10:00:00 5.6 0 Calma 2 Norte 0 -- -- 99
2020-03-11 09:00:00 1.8 0 Calma 2 Noroeste 0 -- -- 98
2020-03-11 08:00:00 1.6 0 Calma 3 Sur 0 -- -- 97
2020-03-11 07:00:00 1.9 3 Sur 5 Sur 0 -- -- 97
2020-03-11 06:00:00 2.2 0 Calma 4 Este 0 -- -- 96
2020-03-11 05:00:00 2.6 0 Calma 3 Sudeste 0 -- -- 95
2020-03-11 04:00:00 3.1 0 Calma 3 Norte 0 -- -- 95
2020-03-11 03:00:00 3.7 0 Calma 4 Oeste 0 -- -- 94
2020-03-11 02:00:00 4.3 0 Calma 3 Noroeste 0 -- -- 93
2020-03-11 01:00:00 5 0 Calma 2 Oeste 0 -- -- 91
2020-03-11 00:00:00 6.1 0 Calma 6 Sudoeste 0 -- -- 89
2020-03-10 23:00:00 7 0 Calma 9 Sudeste 0 -- -- 87
2020-03-10 22:00:00 8.4 4 Sudeste 7 Sur 0 -- -- 81
2020-03-10 21:00:00 10.7 3 Sur 9 Sur 0 -- -- 73
2020-03-10 20:00:00 14.1 6 Noroeste 28 Noroeste 0 -- -- 56
2020-03-10 19:00:00 15.6 16 Noroeste 37 Noroeste 0 -- -- 53
2020-03-10 18:00:00 17.5 9 Norte 31 Norte 0 -- -- 54
2020-03-10 17:00:00 18.6 16 Norte 37 Noroeste 0 -- -- 50
2020-03-10 16:00:00 18.8 16 Norte 30 Noroeste 0 -- -- 51
2020-03-10 15:00:00 18.3 16 Norte 32 Norte 0 -- -- 55
2020-03-10 14:00:00 17.4 7 Norte 20 Norte 0 -- -- 58
2020-03-10 13:00:00 16.2 8 Norte 17 Norte 0 -- -- 56
2020-03-10 12:00:00 13.7 3 Sur 6 Sur 0 -- -- 62
2020-03-10 11:00:00 9.5 0 Calma 4 Noroeste 0 -- -- 78
2020-03-10 10:00:00 5.7 0 Calma 4 Este 0 -- -- 97
2020-03-10 09:00:00 3 0 Calma 4 Noroeste 0 -- -- 97
2020-03-10 08:00:00 2.5 2 Sudeste 4 Este 0 -- -- 97
2020-03-10 07:00:00 2.8 0 Calma 4 Sudoeste 0 -- -- 96
2020-03-10 06:00:00 2.9 0 Calma 5 Noroeste 0 -- -- 96
2020-03-10 05:00:00 3.2 3 Sudeste 4 Sur 0 -- -- 96
2020-03-10 04:00:00 3.5 0 Calma 3 Este 0 -- -- 95
2020-03-10 03:00:00 4.1 0 Calma 4 Sur 0 -- -- 93
2020-03-10 02:00:00 4.9 0 Calma 3 Noroeste 0 -- -- 92
2020-03-10 01:00:00 5.7 0 Calma 5 Sudoeste 0 -- -- 90
2020-03-10 00:00:00 6.9 4 Sur 9 Sudeste 0 -- -- 86
2020-03-09 23:00:00 7.7 3 Sur 13 Sudeste 0 -- -- 83
2020-03-09 22:00:00 8.4 4 Sudeste 8 Sur 0 -- -- 81
2020-03-09 21:00:00 9.9 2 Sur 13 Sudoeste 0 -- -- 76
2020-03-09 20:00:00 12.2 4 Oeste 27 Norte 0 -- -- 63
2020-03-09 19:00:00 13.5 9 Noroeste 21 Noroeste 0 -- -- 54
2020-03-09 18:00:00 14.6 7 Noroeste 16 Noroeste 0 -- -- 52
2020-03-09 17:00:00 15.1 7 Noroeste 21 Noroeste 0 -- -- 51
2020-03-09 16:00:00 14.8 10 Norte 22 Noroeste 0 -- -- 49
2020-03-09 15:00:00 13.9 10 Norte 27 Noroeste 0 -- -- 49
2020-03-09 14:00:00 14 9 Norte 18 Norte 0 -- -- 46
2020-03-09 13:00:00 13.4 5 Norte 13 Noroeste 0 -- -- 49
2020-03-09 12:00:00 12.1 5 Norte 12 Nordeste 0 -- -- 55
2020-03-09 11:00:00 10.1 0 Calma 9 Sur 0 -- -- 72
2020-03-09 10:00:00 6.5 0 Calma 4 Sudoeste 0 -- -- 94
2020-03-09 09:00:00 3.8 2 Norte 9 Sudeste 0 -- -- 95
2020-03-09 08:00:00 3.9 2 Sur 7 Sudeste 0 -- -- 94
2020-03-09 07:00:00 4.4 3 Sudeste 13 Sudeste 0 -- -- 94
2020-03-09 06:00:00 4.6 0 Calma 8 Sudeste 0 -- -- 91
2020-03-09 05:00:00 5.9 4 Nordeste 14 Sudeste 0 -- -- 90
2020-03-09 04:00:00 6.8 2 Sur 19 Sudeste 0 -- -- 88
2020-03-09 03:00:00 7.2 12 Sudeste 20 Sudeste 0 -- -- 87
2020-03-09 02:00:00 7.8 9 Sudeste 15 Sudeste 0 -- -- 86
2020-03-09 01:00:00 8.7 7 Sur 12 Sudeste 0 -- -- 84
2020-03-09 00:00:00 10 4 Sur 16 Sur 0 -- -- 81
2020-03-08 23:00:00 10.4 5 Sudeste 21 Nordeste 0 -- -- 81
2020-03-08 22:00:00 11.9 5 Oeste 30 Norte 0 -- -- 66
2020-03-08 21:00:00 12.4 9 Norte 31 Norte 0 -- -- 69
2020-03-08 20:00:00 13 13 Nordeste 28 Noroeste 0 -- -- 71
2020-03-08 19:00:00 12.7 9 Norte 33 Norte 0 -- -- 76
2020-03-08 18:00:00 13.4 13 Norte 49 Noroeste 0 -- -- 74
2020-03-08 17:00:00 15.1 18 Norte 43 Norte 0 -- -- 68
2020-03-08 16:00:00 16.6 18 Norte 35 Norte 0 -- -- 59
2020-03-08 15:00:00 18.2 15 Norte 27 Norte 0 -- -- 47
2020-03-08 14:00:00 16.1 3 Sudoeste 8 Oeste 0 -- -- 53
2020-03-08 13:00:00 12.9 3 Noroeste 8 Noroeste 0 -- -- 66
2020-03-08 12:00:00 10.8 2 Sur 8 Oeste 0 -- -- 75
2020-03-08 11:00:00 8.5 2 Sur 8 Sur 0 -- -- 79
2020-03-08 10:00:00 5.2 2 Este 9 Noroeste 0 -- -- 92
2020-03-08 09:00:00 3.8 2 Noroeste 5 Noroeste 0 -- -- 96
2020-03-08 08:00:00 3.1 4 Sudeste 10 Sudeste 0 -- -- 97
2020-03-08 07:00:00 2.4 3 Norte 9 Este 0 -- -- 98
2020-03-08 06:00:00 1.7 0 Calma 5 Sur 0 -- -- 97
2020-03-08 05:00:00 1.5 2 Sur 5 Norte 0 -- -- 97
2020-03-08 04:00:00 1.1 0 Calma 5 Sur 0 -- -- 96
2020-03-08 03:00:00 1.6 0 Calma 7 Sudeste 0 -- -- 96
2020-03-08 02:00:00 2.1 2 Sur 5 Sur 0 -- -- 95
2020-03-08 01:00:00 2.6 0 Calma 5 Sudoeste 0 -- -- 94
2020-03-08 00:00:00 3.5 0 Calma 4 Sudeste 0 -- -- 93
2020-03-07 23:00:00 4.5 0 Calma 4 Sur 0 -- -- 89
2020-03-07 22:00:00 6 0 Calma 12 Sudeste 0 -- -- 85
2020-03-07 21:00:00 7.7 6 Sudeste 11 Sudeste 0 -- -- 80
2020-03-07 20:00:00 10.5 3 Sudoeste 21 Norte 0 -- -- 67
2020-03-07 19:00:00 11.6 10 Norte 28 Norte 0 -- -- 63
2020-03-07 18:00:00 12.9 12 Noroeste 30 Noroeste 0 -- -- 59
2020-03-07 17:00:00 14.1 12 Norte 28 Norte 0 -- -- 57
2020-03-07 16:00:00 14.4 14 Norte 32 Norte 0 -- -- 58
2020-03-07 15:00:00 14.7 14 Norte 25 Norte 0 -- -- 56
2020-03-07 14:00:00 14.7 9 Nordeste 17 Nordeste 0 -- -- 51
2020-03-07 13:00:00 14.5 4 Norte 12 Noroeste 0 -- -- 49
2020-03-07 12:00:00 13.5 2 Sudeste 10 Sudeste 0 -- -- 55
2020-03-07 11:00:00 10.9 6 Sur 13 Sudeste 0 -- -- 75
2020-03-07 10:00:00 9.6 7 Sur 14 Sur 0 -- -- 81
2020-03-07 09:00:00 8.2 6 Sur 14 Sudoeste 0 -- -- 87
2020-03-07 08:00:00 8 2 Sur 13 Sur 0 -- -- 85
2020-03-07 07:00:00 8.3 7 Sudeste 21 Oeste 0 -- -- 81
2020-03-07 06:00:00 7.9 4 Norte 16 Sudeste 0 -- -- 83
2020-03-07 05:00:00 8.7 14 Sudeste 42 Norte 0 -- -- 76
2020-03-07 04:00:00 10.5 24 Norte 44 Nordeste 0 -- -- 70
2020-03-07 03:00:00 10.9 18 Norte 46 Norte 0 -- -- 65
2020-03-07 02:00:00 11.1 18 Norte 39 Nordeste 0 -- -- 64
2020-03-07 01:00:00 8.5 5 Sudeste 39 Nordeste 0 -- -- 65
2020-03-07 00:00:00 8.5 13 Este 29 Nordeste 0 -- -- 63
2020-03-06 23:00:00 5.7 8 Sur 28 Sudeste 0 -- -- 80
2020-03-06 22:00:00 6.2 9 Sur 30 Sur 0 -- -- 78
2020-03-06 21:00:00 9 17 Norte 44 Nordeste 0 -- -- 56
2020-03-06 20:00:00 8.2 13 Norte 38 Nordeste 0 -- -- 65
2020-03-06 19:00:00 8.2 15 Norte 42 Norte 0.4 -- -- 65
2020-03-06 18:00:00 7.4 20 Norte 51 Norte 1.4 -- -- 73
2020-03-06 17:00:00 7.8 25 Nordeste 52 Nordeste 1.6 -- -- 69
2020-03-06 16:00:00 7.5 17 Norte 37 Norte 2 -- -- 73
2020-03-06 15:00:00 8.3 15 Nordeste 35 Nordeste 0.2 -- -- 64
2020-03-06 14:00:00 9.4 11 Nordeste 27 Nordeste 0.2 -- -- 51
2020-03-06 13:00:00 7.6 12 Nordeste 52 Nordeste 0.2 -- -- 62
2020-03-06 12:00:00 9.1 14 Norte 55 Nordeste 0.2 -- -- 52
2020-03-06 11:00:00 7.5 9 Nordeste 32 Norte 0.4 -- -- 68
2020-03-06 10:00:00 6.2 19 Norte 43 Nordeste 1.8 -- -- 70
2020-03-06 09:00:00 6.8 20 Nordeste 60 Nordeste 1.8 -- -- 67
2020-03-06 08:00:00 7 26 Norte 47 Norte 0.8 -- -- 71
2020-03-06 07:00:00 6.3 4 Nordeste 37 Nordeste 1 -- -- 81
2020-03-06 06:00:00 6.8 8 Sudeste 17 Sudeste 0.2 -- -- 77
2020-03-06 05:00:00 6.3 6 Este 17 Sur 0 -- -- 92
2020-03-06 04:00:00 5.9 4 Este 12 Sur 0 -- -- 92
2020-03-06 03:00:00 5.4 6 Sur 12 Sudeste 0.4 -- -- 94
2020-03-06 02:00:00 4.7 6 Norte 11 Este 0 -- -- 95
2020-03-06 01:00:00 4.1 0 Calma 7 Este 0 -- -- 95
2020-03-06 00:00:00 4.1 2 Norte 6 Oeste 0 -- -- 94
2020-03-05 23:00:00 5.1 2 Norte 8 Sudeste 0 -- -- 92
2020-03-05 22:00:00 6.5 3 Noroeste 7 Sudeste 0.2 -- -- 89
2020-03-05 21:00:00 7.5 4 Sur 9 Sudoeste 0 -- -- 85
2020-03-05 20:00:00 8.5 6 Nordeste 17 Norte 0 -- -- 79
2020-03-05 19:00:00 10.3 13 Norte 32 Norte 0 -- -- 66
2020-03-05 18:00:00 11.4 4 Nordeste 28 Norte 0 -- -- 65
2020-03-05 17:00:00 11.2 11 Norte 37 Norte 0.2 -- -- 60
2020-03-05 16:00:00 12.1 13 Norte 48 Norte 0.2 -- -- 51
2020-03-05 15:00:00 12.6 19 Nordeste 41 Nordeste 0 -- -- 56
2020-03-05 14:00:00 13 16 Norte 37 Norte 0 -- -- 59
2020-03-05 13:00:00 17 7 Oeste 37 Sur 0 -- -- 41
2020-03-05 12:00:00 17.9 14 Sudoeste 34 Sur 0 -- -- 32
2020-03-05 11:00:00 15.4 8 Nordeste 26 Sur 0.2 -- -- 64
2020-03-05 10:00:00 13.5 11 Sur 31 Noroeste 0.4 -- -- 76
2020-03-05 09:00:00 12.4 9 Noroeste 41 Norte 0.2 -- -- 79
2020-03-05 08:00:00 12.8 17 Norte 34 Nordeste 0 -- -- 78
2020-03-05 07:00:00 14 4 Sur 18 Este 0 -- -- 72
2020-03-05 06:00:00 16.9 10 Sudeste 28 Sudeste 0 -- -- 56
2020-03-05 05:00:00 15.7 6 Sur 23 Este 0 -- -- 65
2020-03-05 04:00:00 15.1 8 Sur 16 Sudeste 0 -- -- 67
2020-03-05 03:00:00 15.5 10 Sudeste 18 Sur 0 -- -- 63
2020-03-05 02:00:00 16.4 11 Sur 23 Sudoeste 0 -- -- 58
2020-03-05 01:00:00 17.3 9 Sur 33 Sudeste 0 -- -- 55
2020-03-05 00:00:00 13.1 6 Sur 16 Sur 0 -- -- 74
2020-03-04 23:00:00 11.3 3 Sudeste 7 Sur 0 -- -- 89
2020-03-04 22:00:00 12.1 0 Calma 6 Sur 0 -- -- 88
2020-03-04 21:00:00 13 4 Sudeste 10 Oeste 0 -- -- 84
2020-03-04 20:00:00 14.2 2 Sudoeste 6 Sudoeste 0 -- -- 79
2020-03-04 19:00:00 16.2 5 Noroeste 18 Noroeste 0 -- -- 70
2020-03-04 18:00:00 17.9 11 Norte 21 Norte 0 -- -- 64
2020-03-04 17:00:00 21 3 Sur 8 Sur 0 -- -- 51
2020-03-04 16:00:00 20.5 2 Sur 7 Sur 0 -- -- 59
2020-03-04 15:00:00 20.6 0 Calma 6 Noroeste 0 -- -- 54
2020-03-04 14:00:00 16.9 0 Calma 6 Noroeste 0 -- -- 75
2020-03-04 13:00:00 14.2 3 Noroeste 5 Noroeste 0.2 -- -- 84
2020-03-04 12:00:00 12.3 2 Noroeste 5 Noroeste 0 -- -- 86
2020-03-04 11:00:00 10.4 2 Oeste 7 Noroeste 0 -- -- 94
2020-03-04 10:00:00 8.8 3 Noroeste 7 Noroeste 0 -- -- 97
2020-03-04 09:00:00 7.7 0 Calma 4 Sudeste 0 -- -- 98
2020-03-04 08:00:00 7.2 2 Sudoeste 6 Sur 0 -- -- 97
2020-03-04 07:00:00 8.2 4 Sudeste 9 Norte 0 -- -- 96
2020-03-04 06:00:00 8.8 3 Sudeste 6 Oeste 0 -- -- 97
2020-03-04 05:00:00 9 2 Sur 6 Este 0 -- -- 96
2020-03-04 04:00:00 9.1 0 Calma 9 Sudeste 0 -- -- 96
2020-03-04 03:00:00 9.3 3 Sur 6 Noroeste 0.2 -- -- 96
2020-03-04 02:00:00 9.3 2 Sur 5 Sudeste 0.4 -- -- 95
2020-03-04 01:00:00 9.4 0 Calma 9 Sudeste 0.2 -- -- 93
2020-03-04 00:00:00 9.9 4 Sudeste 8 Sudeste 0.2 -- -- 90
2020-03-03 23:00:00 10.6 0 Calma 17 Sudeste 0 -- -- 81
2020-03-03 22:00:00 11.3 9 Sudeste 16 Noroeste 0 -- -- 76
2020-03-03 21:00:00 13.5 10 Norte 30 Norte 0 -- -- 68
2020-03-03 20:00:00 14.1 13 Norte 35 Norte 0 -- -- 65
2020-03-03 19:00:00 14.7 16 Norte 46 Norte 0 -- -- 61
2020-03-03 18:00:00 16 20 Norte 44 Norte 0 -- -- 56
2020-03-03 17:00:00 17 21 Norte 47 Nordeste 0 -- -- 51
2020-03-03 16:00:00 18.9 22 Norte 58 Norte 0 -- -- 45
2020-03-03 15:00:00 21.2 23 Nordeste 59 Norte 0 -- -- 27
2020-03-03 14:00:00 22 16 Nordeste 54 Norte 0 -- -- 21
2020-03-03 13:00:00 22.3 14 Norte 46 Noroeste 0 -- -- 23
2020-03-03 12:00:00 20.7 7 Este 19 Noroeste 0 -- -- 28
2020-03-03 11:00:00 15.5 2 Sudeste 15 Sudeste 0 -- -- 69
2020-03-03 10:00:00 10.6 6 Oeste 14 Sudeste 0 -- -- 91
2020-03-03 09:00:00 7.6 4 Sudoeste 13 Sudoeste 0.6 -- -- 94
2020-03-03 08:00:00 6 3 Nordeste 19 Sudeste 0.6 -- -- 95
2020-03-03 07:00:00 5.6 10 Sudeste 25 Sudeste 1 -- -- 94
2020-03-03 06:00:00 4.2 15 Sudeste 23 Sudeste 1 -- -- 97
2020-03-03 05:00:00 2.7 2 Sudeste 5 Oeste 0.6 -- -- 97
2020-03-03 04:00:00 2.3 3 Noroeste 9 Sudeste 0 -- -- 97
2020-03-03 03:00:00 1.7 2 Norte 6 Este 0 -- -- 97
2020-03-03 02:00:00 1.2 0 Calma 5 Este 0 -- -- 96
2020-03-03 01:00:00 2 5 Sur 10 Sudeste 0 -- -- 95
2020-03-03 00:00:00 2.6 5 Oeste 12 Sudeste 0 -- -- 95